Time;durP1;ratioP1;P1;durP2;ratioP2;P2;SDS_P1;SDS_P2;PMS_P1;PMS_P2;Temp;Humidity;BMP_temperature;BMP_pressure;BME280_temperature;BME280_humidity;BME280_pressure;Samples;Min_cycle;Max_cycle;Signal;HPM_P1;HPM_P2
2023/06/06 00:02:03;;;;;;;6.03;5.22;;;16.20;99.90;;;;;;5136753;28;20038;-62
2023/06/06 00:04:35;;;;;;;8.05;6.30;;;16.10;99.90;;;;;;5140943;28;20043;-64
2023/06/06 00:07:12;;;;;;;12.43;6.63;;;16.10;99.90;;;;;;5118922;28;20034;-64
2023/06/06 00:09:46;;;;;;;9.07;6.50;;;16.10;99.90;;;;;;5136241;28;20029;-63
2023/06/06 00:12:18;;;;;;;8.25;5.60;;;16.10;99.90;;;;;;5134316;28;20490;-63
2023/06/06 00:14:51;;;;;;;9.70;6.65;;;16.00;99.90;;;;;;5118474;28;20031;-65
2023/06/06 00:17:28;;;;;;;7.93;5.97;;;16.00;99.90;;;;;;5118794;28;20038;-64
2023/06/06 00:20:09;;;;;;;8.35;6.70;;;15.90;99.90;;;;;;5119942;28;20520;-64
2023/06/06 00:22:42;;;;;;;8.05;6.32;;;15.90;99.90;;;;;;5135074;28;20026;-63
2023/06/06 00:25:16;;;;;;;9.77;6.95;;;15.90;99.90;;;;;;5136647;28;20414;-64
2023/06/06 00:27:50;;;;;;;9.52;6.43;;;16.00;99.90;;;;;;5135255;28;20038;-64
2023/06/06 00:30:24;;;;;;;9.68;6.40;;;16.00;99.90;;;;;;5132155;28;20674;-67
2023/06/06 00:32:56;;;;;;;7.22;5.50;;;16.00;99.90;;;;;;5117497;28;20376;-64
2023/06/06 00:35:30;;;;;;;7.47;6.10;;;16.10;99.90;;;;;;5119017;28;20027;-63
2023/06/06 00:38:03;;;;;;;8.77;6.70;;;16.10;99.90;;;;;;5118813;28;20041;-64
2023/06/06 00:40:38;;;;;;;9.82;6.60;;;16.20;99.90;;;;;;5139831;28;20425;-64
2023/06/06 00:43:10;;;;;;;9.93;6.75;;;16.20;99.90;;;;;;5240032;28;20020;-64
2023/06/06 00:45:44;;;;;;;11.02;7.15;;;16.20;99.90;;;;;;5126888;28;20034;-63
2023/06/06 00:48:16;;;;;;;6.88;5.70;;;16.30;99.90;;;;;;5169191;28;20035;-64
2023/06/06 00:50:52;;;;;;;8.18;5.60;;;16.20;99.90;;;;;;5222267;28;20032;-64
2023/06/06 00:53:23;;;;;;;8.80;6.53;;;16.20;99.90;;;;;;5222794;28;20032;-64
2023/06/06 00:55:57;;;;;;;6.70;6.00;;;16.30;99.90;;;;;;5238548;28;20025;-65
2023/06/06 00:58:30;;;;;;;6.80;5.18;;;16.30;99.90;;;;;;5221983;28;20038;-64
2023/06/06 01:01:01;;;;;;;8.20;6.32;;;16.20;99.90;;;;;;5169047;22;20279;-85
2023/06/06 01:03:35;;;;;;;10.15;6.57;;;16.30;99.90;;;;;;5172854;28;20041;-85
2023/06/06 01:06:08;;;;;;;8.60;6.05;;;16.40;99.90;;;;;;5167754;28;20040;-86
2023/06/06 01:08:43;;;;;;;6.88;6.07;;;16.30;99.90;;;;;;5138916;28;20049;-86
2023/06/06 01:11:26;;;;;;;8.13;6.30;;;16.30;99.90;;;;;;5171234;28;20027;-86
2023/06/06 01:14:23;;;;;;;9.63;6.15;;;16.30;99.90;;;;;;5172656;28;20044;-86
2023/06/06 01:16:57;;;;;;;8.38;5.40;;;16.30;99.90;;;;;;5154087;28;20035;-86
2023/06/06 01:19:32;;;;;;;7.80;6.22;;;16.20;99.90;;;;;;5172564;28;20034;-87
2023/06/06 01:22:12;;;;;;;9.05;6.40;;;16.20;99.90;;;;;;5154643;28;20027;-86
2023/06/06 01:24:45;;;;;;;8.15;6.65;;;16.30;99.90;;;;;;5154338;28;20046;-87
2023/06/06 01:27:16;;;;;;;6.88;5.38;;;16.20;99.90;;;;;;5170776;28;20041;-85
2023/06/06 01:29:50;;;;;;;7.82;5.55;;;16.30;99.90;;;;;;5175865;28;20325;-86
2023/06/06 01:32:30;;;;;;;;;;;16.20;99.90;;;;;;5170965;28;20031;-86
2023/06/06 01:35:20;;;;;;;6.18;5.57;;;16.10;99.90;;;;;;5154323;28;19908;-85
2023/06/06 01:38:02;;;;;;;6.82;5.55;;;16.10;99.90;;;;;;5170737;28;20030;-86
2023/06/06 01:40:36;;;;;;;8.82;6.00;;;16.10;99.90;;;;;;5170732;28;20034;-85
2023/06/06 01:43:13;;;;;;;7.47;5.80;;;16.00;99.90;;;;;;5171461;28;20031;-86
2023/06/06 01:49:14;;;;;;;8.35;5.55;;;16.00;99.90;;;;;;5170523;28;20040;-87
2023/06/06 01:55:13;;;;;;;7.50;6.10;;;15.90;99.90;;;;;;5171988;28;20041;-85
2023/06/06 01:57:48;;;;;;;9.95;7.05;;;15.90;99.90;;;;;;5172622;28;20031;-86
2023/06/06 02:00:25;;;;;;;7.68;6.22;;;15.90;99.90;;;;;;5176028;28;20030;-84
2023/06/06 02:03:01;;;;;;;8.32;6.25;;;16.00;99.90;;;;;;5150363;28;20034;-85
2023/06/06 02:05:35;;;;;;;7.72;5.55;;;16.00;99.90;;;;;;5117518;28;20088;-86
2023/06/06 02:08:38;;;;;;;10.33;6.83;;;15.90;99.90;;;;;;5142335;28;20029;-86
2023/06/06 02:11:39;;;;;;;7.65;6.22;;;16.00;99.90;;;;;;5165594;28;20259;-86
2023/06/06 02:14:15;;;;;;;7.65;6.03;;;15.90;99.90;;;;;;5139128;28;20039;-87
2023/06/06 02:16:48;;;;;;;9.65;6.28;;;15.90;99.90;;;;;;5172996;28;20045;-86
2023/06/06 02:19:22;;;;;;;7.75;6.38;;;15.90;99.90;;;;;;5174087;28;20034;-86
2023/06/06 02:21:53;;;;;;;7.70;6.35;;;15.90;99.90;;;;;;5172871;28;20041;-86
2023/06/06 02:24:28;;;;;;;11.18;7.55;;;16.00;99.90;;;;;;5170152;28;20026;-87
2023/06/06 02:26:59;;;;;;;;;;;15.90;99.90;;;;;;5170871;28;20034;-88
2023/06/06 02:29:36;;;;;;;7.30;6.27;;;15.90;99.90;;;;;;5155568;28;20076;-86
2023/06/06 02:32:10;;;;;;;8.13;6.38;;;15.90;99.90;;;;;;5170720;28;20304;-86
2023/06/06 02:34:44;;;;;;;9.47;6.80;;;15.90;99.90;;;;;;5174014;28;20027;-87
2023/06/06 02:37:17;;;;;;;8.57;5.88;;;15.90;99.90;;;;;;5172952;28;20228;-86
2023/06/06 02:39:53;;;;;;;9.40;6.97;;;15.80;99.90;;;;;;5172096;28;20205;-87
2023/06/06 02:42:25;;;;;;;8.35;6.25;;;15.80;99.90;;;;;;5171341;28;20045;-87
2023/06/06 02:44:58;;;;;;;9.43;7.00;;;15.80;99.90;;;;;;5171829;28;20034;-86
2023/06/06 02:47:32;;;;;;;7.10;6.03;;;15.80;99.90;;;;;;5169735;28;20034;-87
2023/06/06 02:50:35;;;;;;;7.32;6.10;;;15.70;99.90;;;;;;5170123;28;20026;-87
2023/06/06 02:53:15;;;;;;;8.10;6.45;;;15.70;99.90;;;;;;5155261;28;20209;-87
2023/06/06 02:55:55;;;;;;;8.85;6.53;;;15.80;99.90;;;;;;5153753;28;20030;-86
2023/06/06 02:58:38;;;;;;;7.93;6.68;;;15.80;99.90;;;;;;5156234;28;20037;-87
2023/06/06 03:01:14;;;;;;;9.18;6.82;;;15.70;99.90;;;;;;5125649;28;20320;-87
2023/06/06 03:03:48;;;;;;;7.72;5.78;;;15.70;99.90;;;;;;5172189;28;20235;-87
2023/06/06 03:06:22;;;;;;;7.47;6.65;;;15.60;99.90;;;;;;5147289;28;20105;-87
2023/06/06 03:08:57;;;;;;;7.38;6.20;;;15.70;99.90;;;;;;5173175;28;20037;-87
2023/06/06 03:11:33;;;;;;;8.07;6.07;;;15.80;99.90;;;;;;5124183;28;20100;-87
2023/06/06 03:14:11;;;;;;;10.32;6.78;;;15.80;99.90;;;;;;5139553;28;20256;-87
2023/06/06 03:16:43;;;;;;;13.32;7.35;;;15.70;99.90;;;;;;5153741;28;20037;-85
2023/06/06 03:19:16;;;;;;;8.80;6.75;;;15.60;99.90;;;;;;5121981;28;20030;-87
2023/06/06 03:21:51;;;;;;;9.40;6.30;;;15.50;99.90;;;;;;5120754;28;20053;-86
2023/06/06 03:24:29;;;;;;;8.35;6.25;;;15.40;99.90;;;;;;5155001;28;20027;-86
2023/06/06 03:27:06;;;;;;;7.32;6.00;;;15.40;99.90;;;;;;5155104;28;20034;-87
2023/06/06 03:29:39;;;;;;;9.30;6.78;;;15.30;99.90;;;;;;5171938;28;20030;-86
2023/06/06 03:32:11;;;;;;;8.43;6.40;;;15.40;99.90;;;;;;5171505;28;20037;-88
2023/06/06 03:34:42;;;;;;;8.38;6.80;;;15.40;99.90;;;;;;5124205;28;20041;-86
2023/06/06 03:37:15;;;;;;;7.45;6.07;;;15.40;99.90;;;;;;5169357;28;20034;-87
2023/06/06 03:39:48;;;;;;;9.10;6.80;;;15.40;99.90;;;;;;5170747;28;20037;-87
2023/06/06 03:42:23;;;;;;;9.25;7.00;;;15.30;99.90;;;;;;5174901;28;20041;-86
2023/06/06 03:44:55;;;;;;;9.20;7.07;;;15.30;99.90;;;;;;5172592;28;20033;-87
2023/06/06 03:47:27;;;;;;;8.10;6.25;;;15.30;99.90;;;;;;5172471;28;20039;-86
2023/06/06 03:50:03;;;;;;;6.72;5.28;;;15.30;99.90;;;;;;5174577;28;20286;-87
2023/06/06 03:52:44;;;;;;;7.45;5.65;;;15.40;99.90;;;;;;5156849;28;20031;-87
2023/06/06 03:55:15;;;;;;;8.30;6.32;;;15.50;99.90;;;;;;5172837;28;20049;-87
2023/06/06 03:57:56;;;;;;;10.10;6.95;;;15.60;99.90;;;;;;5155983;28;20034;-85
2023/06/06 04:00:35;;;;;;;9.50;6.75;;;15.70;99.90;;;;;;5173977;28;20045;-86
2023/06/06 04:03:10;;;;;;;11.15;6.93;;;15.90;99.90;;;;;;5141602;28;20046;-86
2023/06/06 04:05:44;;;;;;;8.73;6.93;;;16.00;99.90;;;;;;5172611;28;20038;-87
2023/06/06 04:08:17;;;;;;;7.88;6.25;;;16.20;99.90;;;;;;5142853;28;20029;-86
2023/06/06 04:10:52;;;;;;;7.28;5.57;;;16.30;99.90;;;;;;5174385;28;20042;-86
2023/06/06 04:13:26;;;;;;;8.73;6.47;;;16.50;99.90;;;;;;5156231;28;20039;-86
2023/06/06 04:16:06;;;;;;;6.40;5.53;;;16.60;99.90;;;;;;5218146;28;20031;-86
2023/06/06 04:18:38;;;;;;;8.10;5.40;;;16.70;99.90;;;;;;5140402;28;20037;-86
2023/06/06 04:21:16;;;;;;;11.05;5.60;;;16.70;99.90;;;;;;5141616;28;20212;-87
2023/06/06 04:23:49;;;;;;;7.05;5.63;;;16.80;99.90;;;;;;5140903;28;20038;-86
2023/06/06 04:26:31;;;;;;;6.25;5.60;;;16.90;99.90;;;;;;5139046;28;20084;-86
2023/06/06 04:29:07;;;;;;;6.93;4.68;;;16.80;99.90;;;;;;5139156;28;20035;-86
2023/06/06 04:31:41;;;;;;;7.80;5.57;;;16.90;99.90;;;;;;5140417;28;20026;-87
2023/06/06 04:34:41;;;;;;;5.93;4.82;;;16.90;99.90;;;;;;5148419;28;20038;-86
2023/06/06 04:37:47;;;;;;;7.00;5.05;;;17.00;99.90;;;;;;5198402;28;20072;-87
2023/06/06 04:40:21;;;;;;;;;;;17.20;99.90;;;;;;5142606;28;20026;-86
2023/06/06 04:43:00;;;;;;;5.63;5.00;;;17.30;99.90;;;;;;5140283;28;19925;-87
2023/06/06 04:48:39;;;;;;;5.60;5.00;;;17.60;99.90;;;;;;5134135;28;20059;-69
2023/06/06 04:51:10;;;;;;;5.32;4.32;;;17.70;99.90;;;;;;5118164;28;20513;-69
2023/06/06 04:53:50;;;;;;;5.05;4.13;;;17.70;99.90;;;;;;5149046;28;20434;-70
2023/06/06 04:56:21;;;;;;;5.22;4.38;;;17.70;99.90;;;;;;5115710;28;20046;-69
2023/06/06 04:59:09;;;;;;;4.07;3.67;;;17.90;99.90;;;;;;5153153;28;20039;-69
2023/06/06 05:01:41;;;;;;;4.60;3.75;;;18.00;99.90;;;;;;5154454;28;20031;-71
2023/06/06 05:04:12;;;;;;;3.83;3.28;;;18.10;99.90;;;;;;5098929;28;20065;-68
2023/06/06 05:06:53;;;;;;;7.05;4.50;;;18.30;99.90;;;;;;5133831;28;20031;-68
2023/06/06 05:09:30;;;;;;;4.78;4.28;;;18.50;99.90;;;;;;5133065;28;20039;-69
2023/06/06 05:12:02;;;;;;;4.60;3.58;;;18.60;99.90;;;;;;5114231;28;20039;-68
2023/06/06 05:14:33;;;;;;;4.97;4.05;;;18.70;99.90;;;;;;5125975;28;20480;-69
2023/06/06 05:17:05;;;;;;;6.18;3.53;;;18.80;99.90;;;;;;5132257;28;20031;-70
2023/06/06 05:19:36;;;;;;;4.35;3.80;;;19.00;99.90;;;;;;5101952;28;20058;-68
2023/06/06 05:22:08;;;;;;;4.50;3.80;;;19.10;99.90;;;;;;5113731;28;20039;-69
2023/06/06 05:24:42;;;;;;;5.43;4.13;;;19.30;99.90;;;;;;5136281;28;20034;-70
2023/06/06 05:27:16;;;;;;;5.13;4.45;;;19.40;99.90;;;;;;5132416;28;20039;-70
2023/06/06 05:29:47;;;;;;;5.07;4.05;;;19.60;99.90;;;;;;5128815;28;20054;-68
2023/06/06 05:32:19;;;;;;;5.28;4.10;;;20.10;99.90;;;;;;5118549;28;20033;-69
2023/06/06 05:34:51;;;;;;;6.05;4.32;;;20.00;95.80;;;;;;5116443;28;20022;-68
2023/06/06 05:37:22;;;;;;;4.72;4.15;;;19.80;79.10;;;;;;5131060;28;20035;-66
2023/06/06 05:39:53;;;;;;;4.38;3.95;;;20.10;99.90;;;;;;5133428;28;20502;-67
2023/06/06 05:42:27;;;;;;;6.15;4.13;;;20.20;99.90;;;;;;5133183;28;20049;-70
2023/06/06 05:44:58;;;;;;;8.25;5.03;;;20.60;52.30;;;;;;5129405;28;20039;-70
2023/06/06 05:47:36;;;;;;;5.60;4.22;;;20.50;1.00;;;;;;5113565;28;20232;-68
2023/06/06 05:50:10;;;;;;;5.68;4.70;;;20.30;1.00;;;;;;5114866;28;20050;-72
2023/06/06 05:52:49;;;;;;;6.13;5.05;;;19.80;1.00;;;;;;5115318;28;20053;-70
2023/06/06 05:55:49;;;;;;;6.10;4.75;;;20.10;1.00;;;;;;5114075;28;20212;-70
2023/06/06 05:58:20;;;;;;;6.97;4.72;;;20.70;1.00;;;;;;5113321;28;20038;-68
2023/06/06 06:00:53;;;;;;;6.38;4.53;;;21.00;1.00;;;;;;5110132;28;20041;-69
2023/06/06 06:03:24;;;;;;;5.47;4.15;;;20.90;1.00;;;;;;5128109;28;20045;-68
2023/06/06 06:06:05;;;;;;;6.03;5.10;;;21.10;1.00;;;;;;5115687;28;20054;-67
2023/06/06 06:08:49;;;;;;;4.75;4.25;;;21.20;1.00;;;;;;5127277;28;20045;-70
2023/06/06 06:11:21;;;;;;;8.05;4.30;;;21.40;1.00;;;;;;5120347;28;20327;-66
2023/06/06 06:13:52;;;;;;;6.20;4.20;;;21.60;1.00;;;;;;5114651;28;20046;-68
2023/06/06 06:16:24;;;;;;;5.30;4.07;;;21.80;1.00;;;;;;5132047;28;20128;-68
2023/06/06 06:18:57;;;;;;;4.50;3.85;;;21.80;1.00;;;;;;5136638;28;20377;-69
2023/06/06 06:21:33;;;;;;;5.55;4.53;;;22.10;1.00;;;;;;5111701;28;20037;-69
2023/06/06 06:24:16;;;;;;;5.47;4.68;;;22.20;99.90;;;;;;5134655;28;20046;-69
2023/06/06 06:26:51;;;;;;;5.75;3.88;;;22.40;99.90;;;;;;5107140;28;20324;-67
2023/06/06 06:29:22;;;;;;;5.97;4.82;;;22.20;1.00;;;;;;5126148;28;20152;-67
2023/06/06 06:31:58;;;;;;;5.72;4.22;;;22.40;1.00;;;;;;5145837;28;20023;-69
2023/06/06 06:34:40;;;;;;;4.13;3.70;;;22.70;1.00;;;;;;5109044;28;20050;-67
2023/06/06 06:37:13;;;;;;;5.90;4.40;;;23.10;1.00;;;;;;5216093;28;20027;-68
2023/06/06 06:39:49;;;;;;;5.28;4.78;;;22.50;1.00;;;;;;5141602;28;20047;-66
2023/06/06 06:42:23;;;;;;;6.53;4.28;;;22.40;1.00;;;;;;5130514;28;20031;-68
2023/06/06 06:44:54;;;;;;;;;;;22.60;80.90;;;;;;5126128;28;20034;-69
2023/06/06 06:47:30;;;;;;;4.43;3.97;;;23.10;99.90;;;;;;5120018;28;20260;-69
2023/06/06 06:50:02;;;;;;;6.50;4.97;;;23.70;99.90;;;;;;5111960;28;20066;-68
2023/06/06 06:52:35;;;;;;;9.20;4.18;;;23.80;1.00;;;;;;5126987;28;20037;-67
2023/06/06 06:55:10;;;;;;;6.50;4.53;;;23.60;1.00;;;;;;5102426;28;20035;-67
2023/06/06 06:57:45;;;;;;;6.30;4.93;;;24.00;99.90;;;;;;5129418;28;20396;-68
2023/06/06 07:00:18;;;;;;;5.22;4.55;;;24.00;1.00;;;;;;5103498;28;20039;-67
2023/06/06 07:02:54;;;;;;;7.50;5.30;;;24.20;1.00;;;;;;5111984;28;20251;-68
2023/06/06 07:05:29;;;;;;;5.68;4.13;;;24.30;99.90;;;;;;5125384;28;20043;-67
2023/06/06 07:08:00;;;;;;;5.80;4.53;;;24.20;1.00;;;;;;5119759;28;20031;-68
2023/06/06 07:10:32;;;;;;;5.30;4.75;;;23.80;1.00;;;;;;5104360;28;20441;-67
2023/06/06 07:13:05;;;;;;;4.63;4.15;;;23.50;99.90;;;;;;5118727;28;20031;-67
2023/06/06 07:15:39;;;;;;;5.80;5.22;;;23.40;1.00;;;;;;5101640;28;20275;-66
2023/06/06 07:18:12;;;;;;;;;;;22.70;1.00;;;;;;5113361;28;20557;-68
2023/06/06 07:20:43;;;;;;;5.93;4.30;;;22.40;1.00;;;;;;5136387;28;20064;-68
2023/06/06 07:23:15;;;;;;;5.40;4.35;;;22.70;99.90;;;;;;5117191;28;20369;-67
2023/06/06 07:25:46;;;;;;;6.28;4.57;;;22.80;99.90;;;;;;5152026;28;20041;-65
2023/06/06 07:28:19;;;;;;;4.53;4.10;;;23.10;1.00;;;;;;5129761;28;20049;-68
2023/06/06 07:30:51;;;;;;;4.85;4.40;;;23.30;1.00;;;;;;5122807;28;20045;-70
2023/06/06 07:33:22;;;;;;;5.22;4.00;;;23.30;99.90;;;;;;5116707;28;20041;-68
2023/06/06 07:35:53;;;;;;;5.60;4.22;;;22.90;1.00;;;;;;5132704;28;20152;-65
2023/06/06 07:38:25;;;;;;;5.72;5.13;;;22.70;1.00;;;;;;5214164;28;20196;-68
2023/06/06 07:41:00;;;;;;;7.07;4.63;;;22.40;99.90;;;;;;5113776;28;20052;-69
2023/06/06 07:43:36;;;;;;;5.55;4.45;;;22.80;1.00;;;;;;5120364;28;20026;-68
2023/06/06 07:46:07;;;;;;;5.70;3.95;;;23.00;99.90;;;;;;5106959;28;20053;-67
2023/06/06 07:48:43;;;;;;;7.30;4.28;;;23.40;99.90;;;;;;5136318;28;20335;-70
2023/06/06 07:51:15;;;;;;;6.20;4.63;;;23.70;99.90;;;;;;5135094;28;20035;-66
2023/06/06 07:53:46;;;;;;;5.45;4.45;;;23.40;1.00;;;;;;5128232;28;20045;-68
2023/06/06 07:56:21;;;;;;;5.57;4.38;;;23.30;99.90;;;;;;5136064;28;20227;-70
2023/06/06 07:58:53;;;;;;;5.10;4.40;;;23.10;99.90;;;;;;5135745;28;20223;-65
2023/06/06 08:01:27;;;;;;;7.00;5.10;;;23.30;99.90;;;;;;5111732;28;20271;-69
2023/06/06 08:04:04;;;;;;;4.93;4.40;;;23.40;99.90;;;;;;5115968;28;20031;-67
2023/06/06 08:06:37;;;;;;;6.68;4.95;;;23.60;1.00;;;;;;5124061;28;20255;-65
2023/06/06 08:09:08;;;;;;;7.20;5.43;;;23.70;1.00;;;;;;5119443;28;20045;-66
2023/06/06 08:11:42;;;;;;;7.30;4.53;;;23.70;1.00;;;;;;5115217;29;20031;-67
2023/06/06 08:14:13;;;;;;;5.32;4.35;;;23.90;99.90;;;;;;5116443;28;20035;-67
2023/06/06 08:16:47;;;;;;;6.88;4.85;;;24.30;1.00;;;;;;5107508;28;20023;-67
2023/06/06 08:19:18;;;;;;;5.15;4.15;;;24.60;99.90;;;;;;5116011;28;20047;-68
2023/06/06 08:21:52;;;;;;;5.88;4.72;;;24.20;99.90;;;;;;5118439;28;20135;-68
2023/06/06 08:24:23;;;;;;;5.15;4.43;;;24.20;1.00;;;;;;5133682;28;20034;-66
2023/06/06 08:26:57;;;;;;;7.45;4.55;;;24.40;1.00;;;;;;5131596;28;20039;-67
2023/06/06 08:29:29;;;;;;;5.40;4.72;;;24.60;1.00;;;;;;5118255;28;20214;-68
2023/06/06 08:32:04;;;;;;;8.45;5.53;;;24.70;99.90;;;;;;5112718;28;20053;-70
2023/06/06 08:34:38;;;;;;;8.98;5.40;;;25.00;1.00;;;;;;5119224;28;20278;-69
2023/06/06 08:37:10;;;;;;;6.20;4.83;;;25.20;99.90;;;;;;5118446;28;20330;-65
2023/06/06 08:39:44;;;;;;;9.73;4.93;;;25.30;99.90;;;;;;5113342;28;20516;-66
2023/06/06 08:42:22;;;;;;;6.07;4.88;;;25.50;24.50;;;;;;5143392;28;20329;-67
2023/06/06 08:44:57;;;;;;;7.20;5.63;;;25.70;1.00;;;;;;5123346;28;20039;-66
2023/06/06 08:47:31;;;;;;;7.70;5.72;;;25.80;1.00;;;;;;5113673;28;20035;-68
2023/06/06 08:50:04;;;;;;;6.00;5.07;;;25.90;1.00;;;;;;5109802;28;20046;-69
2023/06/06 08:52:37;;;;;;;19.90;11.02;;;25.90;1.00;;;;;;5136194;28;20030;-68
2023/06/06 08:55:09;;;;;;;8.00;6.05;;;25.10;1.50;;;;;;5128996;28;20136;-65
2023/06/06 08:57:43;;;;;;;8.85;6.47;;;25.20;99.90;;;;;;5096168;28;20042;-66
2023/06/06 09:00:27;;;;;;;9.55;5.70;;;25.00;99.90;;;;;;5111281;28;20043;-64
2023/06/06 09:02:59;;;;;;;7.13;5.93;;;25.20;1.00;;;;;;5125214;28;20338;-67
2023/06/06 09:05:39;;;;;;;7.53;6.38;;;25.20;1.00;;;;;;5112344;28;20289;-67
2023/06/06 09:08:11;;;;;;;6.63;5.57;;;25.40;99.90;;;;;;5125639;28;20109;-67
2023/06/06 09:10:42;;;;;;;7.78;6.07;;;25.60;1.00;;;;;;5111554;28;20030;-68
2023/06/06 09:13:18;;;;;;;6.60;4.78;;;25.40;1.00;;;;;;5127313;28;20023;-68
2023/06/06 09:15:53;;;;;;;10.35;5.18;;;25.70;1.00;;;;;;5111679;28;20243;-67
2023/06/06 09:18:32;;;;;;;6.45;5.38;;;26.10;1.00;;;;;;5103984;28;20201;-66
2023/06/06 09:21:03;;;;;;;7.95;6.05;;;25.50;99.90;;;;;;5136842;28;20035;-66
2023/06/06 09:23:35;;;;;;;6.55;5.57;;;25.50;1.00;;;;;;5088700;28;20043;-66
2023/06/06 09:26:19;;;;;;;7.63;5.90;;;25.30;1.00;;;;;;5118213;28;20204;-65
2023/06/06 09:28:50;;;;;;;9.07;6.50;;;24.70;99.90;;;;;;5130341;28;20270;-67
2023/06/06 09:31:27;;;;;;;8.50;6.63;;;24.20;99.90;;;;;;5136885;28;20187;-67
2023/06/06 09:34:01;;;;;;;9.38;6.32;;;24.10;1.00;;;;;;5113489;29;20243;-66
2023/06/06 09:36:32;;;;;;;;;;;24.30;1.00;;;;;;5130151;28;20029;-69
2023/06/06 09:39:12;;;;;;;7.53;5.50;;;24.90;1.00;;;;;;5125783;28;20210;-68
2023/06/06 09:41:45;;;;;;;8.13;5.95;;;25.50;1.00;;;;;;5126668;28;20194;-66
2023/06/06 09:44:22;;;;;;;6.55;4.90;;;25.90;99.90;;;;;;5118778;28;20188;-68
2023/06/06 09:47:01;;;;;;;6.03;5.13;;;26.10;1.00;;;;;;5128799;28;20038;-67
2023/06/06 09:49:36;;;;;;;7.90;5.80;;;26.30;99.90;;;;;;5118930;28;20191;-69
2023/06/06 09:52:15;;;;;;;6.65;4.93;;;25.10;1.00;;;;;;5117375;28;20242;-66
2023/06/06 09:54:47;;;;;;;8.60;5.57;;;24.70;1.00;;;;;;5115885;28;20317;-70
2023/06/06 09:57:19;;;;;;;4.43;3.83;;;24.10;99.90;;;;;;5131817;28;20022;-66
2023/06/06 09:59:54;;;;;;;4.50;3.67;;;23.40;99.90;;;;;;5123681;28;20053;-68
2023/06/06 10:02:29;;;;;;;4.70;4.03;;;23.00;1.00;;;;;;5132398;28;20023;-67
2023/06/06 10:05:06;;;;;;;4.07;3.30;;;22.10;1.00;;;;;;5109264;28;20361;-66
2023/06/06 10:07:44;;;;;;;5.85;3.75;;;21.70;1.00;;;;;;5114871;28;20024;-67
2023/06/06 10:10:20;;;;;;;4.43;3.70;;;21.30;99.90;;;;;;5129523;28;20027;-67
2023/06/06 10:12:54;;;;;;;4.43;3.72;;;20.80;1.00;;;;;;5115323;28;20284;-67
2023/06/06 10:15:29;;;;;;;5.10;4.28;;;20.60;1.00;;;;;;5129451;28;20342;-67
2023/06/06 10:18:04;;;;;;;5.53;4.53;;;20.40;1.00;;;;;;5132957;28;20034;-68
2023/06/06 10:20:39;;;;;;;6.55;4.00;;;20.10;1.00;;;;;;5110055;28;20298;-68
2023/06/06 10:23:11;;;;;;;5.32;4.35;;;19.80;60.00;;;;;;5118422;28;20234;-68
2023/06/06 10:25:46;;;;;;;5.20;4.65;;;19.70;99.90;;;;;;5108251;28;20464;-68
2023/06/06 10:28:26;;;;;;;6.10;4.90;;;19.70;98.00;;;;;;5127954;28;20211;-68
2023/06/06 10:31:25;;;;;;;5.82;4.85;;;19.70;99.90;;;;;;5114140;28;20052;-67
2023/06/06 10:34:01;;;;;;;4.65;4.20;;;19.50;99.90;;;;;;5132391;28;20023;-66
2023/06/06 10:36:43;;;;;;;8.13;6.28;;;19.40;99.90;;;;;;5120668;28;20035;-68
2023/06/06 10:39:34;;;;;;;8.20;5.88;;;19.20;99.90;;;;;;5136478;28;20038;-67
2023/06/06 10:42:07;;;;;;;7.47;5.40;;;19.10;99.90;;;;;;5117836;28;20041;-67
2023/06/06 10:44:54;;;;;;;6.97;6.28;;;19.00;99.90;;;;;;5134991;28;20038;-66
2023/06/06 10:47:29;;;;;;;6.65;5.85;;;19.10;99.90;;;;;;5129484;28;20047;-68
2023/06/06 10:50:21;;;;;;;6.28;5.43;;;19.40;99.90;;;;;;5117998;28;20327;-68
2023/06/06 10:53:15;;;;;;;7.22;5.72;;;19.70;99.90;;;;;;5149848;28;20297;-66
2023/06/06 10:55:46;;;;;;;6.25;5.60;;;19.90;99.90;;;;;;5137027;28;20332;-69
2023/06/06 10:58:34;;;;;;;7.07;5.30;;;20.00;99.90;;;;;;5119511;28;20260;-67
2023/06/06 11:01:06;;;;;;;5.78;5.18;;;20.30;99.90;;;;;;5131786;28;20045;-68
2023/06/06 11:03:41;;;;;;;6.25;5.38;;;20.50;1.00;;;;;;5116248;29;20172;-69
2023/06/06 11:06:23;;;;;;;8.23;5.15;;;20.80;9.70;;;;;;5122399;28;20506;-69
2023/06/06 11:08:57;;;;;;;5.65;4.57;;;21.30;1.00;;;;;;5112419;28;20039;-69
2023/06/06 11:11:35;;;;;;;;;;;21.80;1.00;;;;;;5120942;28;20292;-68
2023/06/06 11:14:10;;;;;;;5.82;4.40;;;22.50;1.00;;;;;;5120014;28;19916;-69
2023/06/06 11:16:43;;;;;;;5.97;4.30;;;23.20;99.90;;;;;;5134254;28;20043;-69
2023/06/06 11:19:18;;;;;;;5.37;4.40;;;23.80;1.00;;;;;;5135051;28;20027;-67
2023/06/06 11:21:51;;;;;;;;;;;24.10;99.90;;;;;;5185357;28;20038;-69
2023/06/06 11:24:23;;;;;;;4.63;3.67;;;24.40;99.90;;;;;;5133990;28;19915;-68
2023/06/06 11:27:00;;;;;;;4.70;3.63;;;25.50;1.00;;;;;;5111364;28;20513;-65
2023/06/06 11:29:36;;;;;;;4.57;3.78;;;26.10;1.00;;;;;;5120580;28;20027;-70
2023/06/06 11:32:10;;;;;;;4.25;3.55;;;26.80;99.90;;;;;;5133343;28;20046;-69
2023/06/06 11:34:42;;;;;;;3.58;2.97;;;27.70;99.90;;;;;;5119807;28;20038;-72
2023/06/06 11:37:14;;;;;;;2.92;2.70;;;29.00;31.00;;;;;;5133165;28;20034;-70
2023/06/06 11:39:46;;;;;;;2.83;2.55;;;30.90;1.00;;;;;;5120467;28;20045;-70
2023/06/06 11:42:18;;;;;;;2.85;2.17;;;30.40;10.50;;;;;;5100309;29;20045;-69
2023/06/06 11:44:51;;;;;;;3.33;2.45;;;31.00;1.00;;;;;;5117006;28;20031;-67
2023/06/06 11:47:35;;;;;;;2.85;2.58;;;32.20;1.00;;;;;;5117237;28;20046;-69
2023/06/06 11:50:07;;;;;;;3.17;2.67;;;30.40;1.00;;;;;;5121788;28;20234;-66
2023/06/06 11:52:50;;;;;;;2.33;2.13;;;30.30;1.00;;;;;;5119948;28;20074;-69
2023/06/06 11:55:36;;;;;;;2.53;2.33;;;29.90;1.00;;;;;;5138312;28;20030;-69
2023/06/06 11:58:08;;;;;;;3.10;2.35;;;31.10;1.00;;;;;;5118280;28;20039;-67
2023/06/06 12:00:40;;;;;;;3.58;2.42;;;32.30;1.00;;;;;;5115363;28;20030;-69
2023/06/06 12:03:14;;;;;;;3.45;2.20;;;32.40;1.00;;;;;;5118010;28;20039;-69
2023/06/06 12:06:04;;;;;;;3.17;2.80;;;33.60;99.90;;;;;;5140629;28;20046;-67
2023/06/06 12:08:42;;;;;;;2.78;2.50;;;33.90;99.90;;;;;;5116977;28;20042;-71
2023/06/06 12:11:26;;;;;;;4.90;3.15;;;33.00;99.90;;;;;;5115728;29;20043;-69
2023/06/06 12:13:57;;;;;;;3.90;2.88;;;32.00;99.90;;;;;;5109844;28;20027;-66
2023/06/06 12:16:31;;;;;;;3.33;2.83;;;32.20;99.90;;;;;;5134285;28;20029;-70
2023/06/06 12:19:16;;;;;;;2.65;2.45;;;31.20;99.90;;;;;;5135674;28;20066;-67
2023/06/06 12:21:51;;;;;;;2.83;2.35;;;30.00;99.90;;;;;;5116568;28;20035;-69
2023/06/06 12:24:25;;;;;;;3.22;2.20;;;28.60;1.00;;;;;;5131884;28;20047;-70
2023/06/06 12:27:03;;;;;;;2.05;1.88;;;29.00;1.00;;;;;;5134734;28;20697;-68
2023/06/06 12:29:35;;;;;;;2.85;2.17;;;28.90;1.00;;;;;;5120779;28;20027;-72
2023/06/06 12:32:25;;;;;;;3.28;2.63;;;28.40;1.00;;;;;;5130880;28;20035;-67
2023/06/06 12:35:03;;;;;;;4.32;2.95;;;28.60;1.00;;;;;;5119841;28;20068;-69
2023/06/06 12:37:44;;;;;;;2.72;2.40;;;27.90;1.00;;;;;;5110754;28;20039;-66
2023/06/06 12:40:20;;;;;;;3.97;2.25;;;27.90;1.00;;;;;;5131467;28;20192;-67
2023/06/06 12:43:06;;;;;;;2.65;2.45;;;27.40;1.00;;;;;;5151611;28;20031;-69
2023/06/06 12:45:37;;;;;;;4.68;2.90;;;26.90;1.00;;;;;;5134746;28;20303;-68
2023/06/06 12:48:09;;;;;;;2.83;2.42;;;26.60;99.90;;;;;;5132477;28;20027;-69
2023/06/06 12:50:43;;;;;;;2.83;2.50;;;27.00;1.00;;;;;;5133813;28;20249;-66
2023/06/06 12:53:14;;;;;;;2.53;2.33;;;26.90;99.90;;;;;;5136860;28;20031;-67
2023/06/06 12:55:46;;;;;;;3.15;2.53;;;27.30;99.90;;;;;;5137464;28;20029;-70
2023/06/06 12:58:17;;;;;;;3.85;2.78;;;27.60;99.90;;;;;;5131557;28;20039;-65
2023/06/06 13:00:48;;;;;;;3.00;2.70;;;27.10;19.50;;;;;;5117914;28;20038;-67
2023/06/06 13:03:22;;;;;;;2.63;2.30;;;26.60;99.90;;;;;;5144509;28;20491;-69
2023/06/06 13:05:56;;;;;;;3.25;2.78;;;27.00;99.90;;;;;;5104403;28;20056;-70
2023/06/06 13:08:29;;;;;;;3.47;3.17;;;27.20;99.90;;;;;;5112251;29;20035;-67
2023/06/06 13:11:00;;;;;;;3.30;2.85;;;26.90;99.90;;;;;;5117190;29;20034;-67
2023/06/06 13:13:32;;;;;;;2.95;2.63;;;27.10;99.90;;;;;;5123719;28;20031;-68
2023/06/06 13:16:03;;;;;;;2.95;2.75;;;26.60;99.90;;;;;;5148494;28;20046;-67
2023/06/06 13:18:38;;;;;;;4.75;4.28;;;26.70;1.00;;;;;;5116642;28;20034;-67
2023/06/06 13:21:12;;;;;;;7.93;5.90;;;26.80;55.20;;;;;;5117996;28;20035;-66
2023/06/06 13:23:45;;;;;;;9.25;7.18;;;26.70;99.90;;;;;;5116574;28;20049;-67
2023/06/06 13:26:19;;;;;;;9.10;6.35;;;26.10;1.00;;;;;;5132023;28;20031;-67
2023/06/06 13:28:54;;;;;;;13.37;7.23;;;24.50;99.90;;;;;;5129294;28;20038;-68
2023/06/06 13:31:28;;;;;;;16.63;8.15;;;23.20;1.00;;;;;;5119535;28;20048;-68
2023/06/06 13:33:59;;;;;;;9.98;7.05;;;22.00;99.90;;;;;;5134895;28;20057;-73
2023/06/06 13:36:31;;;;;;;14.35;9.15;;;20.40;99.90;;;;;;5135814;28;20035;-69
2023/06/06 13:39:04;;;;;;;12.45;9.20;;;19.40;99.90;;;;;;5135357;28;20031;-70
2023/06/06 13:41:42;;;;;;;14.52;10.27;;;19.10;99.90;;;;;;5141785;28;20044;-73
2023/06/06 13:44:22;;;;;;;16.45;10.60;;;18.80;99.90;;;;;;5134246;28;20035;-69